Delray Beach, FL (33448)

3:48 PM EDT on May 25, 2017 (GMT -0400)
Lake Ida - Garden House | | Change Station

Elev 0 ft 26.48 °N, 80.07 °W | Updated 10 seconds ago

Mostly Cloudy
Mostly Cloudy
81.9 °F
Feels Like 89 °F
N
2.0
Wind Variable Wind from SSW

Today
High -- | Low -- °F
--% Chance of Precip.
Yesterday
High -- | Low -- °F
Precip. -- in
Pressure 29.89 in
Visibility 9.0 miles
Clouds Few 2000 ft
Scattered Clouds 3000 ft
Mostly Cloudy 8500 ft
Heat Index 89 °F
Dew Point 75 °F
Humidity 81%
Rainfall 0.66 in
Snow Depth Not available.
6:29 AM 8:05 PM
Waning Crescent, 0% visible
SPECI KPMP 251924Z 29008KT 9SM FEW020 SCT030 BKN085 27/24 A2989 RMK AO2 WSHFT 1840 LTG DSNT NE-S RAE09 P0000 T02720239
Pressure 29.89 in
Visibility 9.0 miles
Clouds Few 2000 ft
Scattered Clouds 3000 ft
Mostly Cloudy 8500 ft
Heat Index 89 °F
Dew Point 75 °F
Humidity 81%
Rainfall 0.66 in
Snow Depth Not available.
6:29 AM 8:05 PM
Waning Crescent, 0% visible
SPECI KPMP 251924Z 29008KT 9SM FEW020 SCT030 BKN085 27/24 A2989 RMK AO2 WSHFT 1840 LTG DSNT NE-S RAE09 P0000 T02720239

Get Severe Weather Alerts

Thanks for signing up!

Be on the lookout for a verification email in your inbox.

You'll start receiving the daily forecast at 6 AM.

×

10-Day Weather Forecast

Almanac

Astronomy

May. 25, 2017 Rise Set
Actual Time
Civil Twilight
Nautical Twilight
Astronomical Twilight
Moon
Length of Visible Light
Length of Day
Tomorrow will be .
, % of the Moon is Illuminated

Today's Extremes

State Highs State Lows

Community

WunderPhotos

Category 6

Welcome to Category 6. This is the collective home for Weather Underground's featured writeups by Dr. Jeff Masters (right), Bob Henson (left), Chris Burt, and other regular contributors.

Nearby

Air Quality

  Air Quality AQ Index Pollutant
Not available.

Snow Depth

Station Depth Elevation

Earthquake Activity

City Distance Mag. Time & Date
Minimum magnitude displayed is 2.5.

Coastal Water Temperatures

Place Temperature

Stations

Nearby Weather Stations

Station Location Temp. Windchill Dew Point Humidity Wind Precip. Elev Updated Type
                   

Watches & Warnings

There are currently no watches in effect.